sensor_id;sensor_type;location;lat;lon;timestamp;P1;durP1;ratioP1;P2;durP2;ratioP2
59066;SDS011;44854;50.838;4.438;2024-02-21T00:05:42;26.15;;;10.80;;
59066;SDS011;44854;50.838;4.438;2024-02-21T00:08:08;30.83;;;10.50;;
59066;SDS011;44854;50.838;4.438;2024-02-21T00:10:34;32.50;;;11.25;;
59066;SDS011;44854;50.838;4.438;2024-02-21T00:13:00;29.23;;;10.82;;
59066;SDS011;44854;50.838;4.438;2024-02-21T00:15:27;27.25;;;11.43;;
59066;SDS011;44854;50.838;4.438;2024-02-21T00:17:52;30.05;;;10.73;;
59066;SDS011;44854;50.838;4.438;2024-02-21T00:20:18;29.42;;;10.65;;
59066;SDS011;44854;50.838;4.438;2024-02-21T00:22:45;25.15;;;10.55;;
59066;SDS011;44854;50.838;4.438;2024-02-21T00:25:11;32.38;;;10.18;;
59066;SDS011;44854;50.838;4.438;2024-02-21T00:27:39;22.25;;;8.88;;
59066;SDS011;44854;50.838;4.438;2024-02-21T00:30:05;30.80;;;11.05;;
59066;SDS011;44854;50.838;4.438;2024-02-21T00:32:31;23.55;;;10.20;;
59066;SDS011;44854;50.838;4.438;2024-02-21T00:34:59;23.88;;;10.15;;
59066;SDS011;44854;50.838;4.438;2024-02-21T00:37:24;22.45;;;8.10;;
59066;SDS011;44854;50.838;4.438;2024-02-21T00:39:50;25.13;;;8.93;;
59066;SDS011;44854;50.838;4.438;2024-02-21T00:42:16;18.33;;;8.38;;
59066;SDS011;44854;50.838;4.438;2024-02-21T00:44:41;23.15;;;8.45;;
59066;SDS011;44854;50.838;4.438;2024-02-21T00:47:07;26.83;;;8.95;;
59066;SDS011;44854;50.838;4.438;2024-02-21T00:49:33;23.20;;;8.38;;
59066;SDS011;44854;50.838;4.438;2024-02-21T00:52:00;23.45;;;9.05;;
59066;SDS011;44854;50.838;4.438;2024-02-21T00:54:25;27.70;;;10.35;;
59066;SDS011;44854;50.838;4.438;2024-02-21T00:56:51;29.80;;;11.52;;
59066;SDS011;44854;50.838;4.438;2024-02-21T00:59:17;29.40;;;9.98;;
59066;SDS011;44854;50.838;4.438;2024-02-21T01:01:43;27.27;;;10.27;;
59066;SDS011;44854;50.838;4.438;2024-02-21T01:04:09;24.40;;;10.32;;
59066;SDS011;44854;50.838;4.438;2024-02-21T01:06:34;28.55;;;10.85;;
59066;SDS011;44854;50.838;4.438;2024-02-21T01:09:00;22.67;;;10.73;;
59066;SDS011;44854;50.838;4.438;2024-02-21T01:11:26;30.77;;;11.07;;
59066;SDS011;44854;50.838;4.438;2024-02-21T01:13:52;29.88;;;10.40;;
59066;SDS011;44854;50.838;4.438;2024-02-21T01:16:18;28.80;;;11.00;;
59066;SDS011;44854;50.838;4.438;2024-02-21T01:18:44;23.13;;;10.73;;
59066;SDS011;44854;50.838;4.438;2024-02-21T01:21:09;25.48;;;10.40;;
59066;SDS011;44854;50.838;4.438;2024-02-21T01:23:36;31.15;;;10.98;;
59066;SDS011;44854;50.838;4.438;2024-02-21T01:26:02;27.88;;;10.60;;
59066;SDS011;44854;50.838;4.438;2024-02-21T01:28:29;39.85;;;17.35;;
59066;SDS011;44854;50.838;4.438;2024-02-21T01:30:55;23.27;;;11.70;;
59066;SDS011;44854;50.838;4.438;2024-02-21T01:33:21;28.65;;;11.88;;
59066;SDS011;44854;50.838;4.438;2024-02-21T01:35:47;32.83;;;15.20;;
59066;SDS011;44854;50.838;4.438;2024-02-21T01:38:15;33.05;;;12.13;;
59066;SDS011;44854;50.838;4.438;2024-02-21T01:40:40;26.20;;;12.15;;
59066;SDS011;44854;50.838;4.438;2024-02-21T01:43:16;29.77;;;12.20;;
59066;SDS011;44854;50.838;4.438;2024-02-21T01:45:45;28.00;;;12.95;;
59066;SDS011;44854;50.838;4.438;2024-02-21T01:48:14;27.42;;;12.00;;
59066;SDS011;44854;50.838;4.438;2024-02-21T01:50:42;28.58;;;12.95;;
59066;SDS011;44854;50.838;4.438;2024-02-21T01:53:08;33.40;;;13.80;;
59066;SDS011;44854;50.838;4.438;2024-02-21T01:55:35;25.67;;;12.73;;
59066;SDS011;44854;50.838;4.438;2024-02-21T01:58:00;29.42;;;12.60;;
59066;SDS011;44854;50.838;4.438;2024-02-21T02:00:26;28.70;;;12.55;;
59066;SDS011;44854;50.838;4.438;2024-02-21T02:02:53;33.92;;;13.75;;
59066;SDS011;44854;50.838;4.438;2024-02-21T02:05:21;27.02;;;12.95;;
59066;SDS011;44854;50.838;4.438;2024-02-21T02:07:47;31.00;;;12.65;;
59066;SDS011;44854;50.838;4.438;2024-02-21T02:10:13;29.08;;;12.35;;
59066;SDS011;44854;50.838;4.438;2024-02-21T02:12:38;36.42;;;13.35;;
59066;SDS011;44854;50.838;4.438;2024-02-21T02:15:04;31.58;;;13.40;;
59066;SDS011;44854;50.838;4.438;2024-02-21T02:17:30;30.85;;;12.27;;
59066;SDS011;44854;50.838;4.438;2024-02-21T02:19:56;30.83;;;11.00;;
59066;SDS011;44854;50.838;4.438;2024-02-21T02:22:22;29.85;;;11.35;;
59066;SDS011;44854;50.838;4.438;2024-02-21T02:24:52;34.63;;;12.32;;
59066;SDS011;44854;50.838;4.438;2024-02-21T02:27:18;26.95;;;11.90;;
59066;SDS011;44854;50.838;4.438;2024-02-21T02:29:44;28.65;;;10.73;;
59066;SDS011;44854;50.838;4.438;2024-02-21T02:32:10;31.13;;;10.93;;
59066;SDS011;44854;50.838;4.438;2024-02-21T02:34:36;34.15;;;11.32;;
59066;SDS011;44854;50.838;4.438;2024-02-21T02:37:03;27.02;;;10.77;;
59066;SDS011;44854;50.838;4.438;2024-02-21T02:39:29;24.38;;;11.32;;
59066;SDS011;44854;50.838;4.438;2024-02-21T02:41:54;25.42;;;10.75;;
59066;SDS011;44854;50.838;4.438;2024-02-21T02:44:20;23.38;;;10.55;;
59066;SDS011;44854;50.838;4.438;2024-02-21T02:46:46;23.13;;;10.70;;
59066;SDS011;44854;50.838;4.438;2024-02-21T02:49:11;29.77;;;10.98;;
59066;SDS011;44854;50.838;4.438;2024-02-21T02:51:40;28.80;;;10.57;;
59066;SDS011;44854;50.838;4.438;2024-02-21T02:54:07;24.45;;;10.88;;
59066;SDS011;44854;50.838;4.438;2024-02-21T02:56:33;23.08;;;10.63;;
59066;SDS011;44854;50.838;4.438;2024-02-21T02:58:58;26.42;;;10.20;;
59066;SDS011;44854;50.838;4.438;2024-02-21T03:01:24;25.48;;;10.75;;
59066;SDS011;44854;50.838;4.438;2024-02-21T03:03:50;25.13;;;10.82;;
59066;SDS011;44854;50.838;4.438;2024-02-21T03:06:15;25.75;;;10.05;;
59066;SDS011;44854;50.838;4.438;2024-02-21T03:08:41;22.42;;;9.80;;
59066;SDS011;44854;50.838;4.438;2024-02-21T03:11:08;26.20;;;10.55;;
59066;SDS011;44854;50.838;4.438;2024-02-21T03:13:34;25.08;;;10.27;;
59066;SDS011;44854;50.838;4.438;2024-02-21T03:15:59;24.23;;;10.98;;
59066;SDS011;44854;50.838;4.438;2024-02-21T03:18:25;23.95;;;10.43;;
59066;SDS011;44854;50.838;4.438;2024-02-21T03:20:51;27.65;;;10.88;;
59066;SDS011;44854;50.838;4.438;2024-02-21T03:23:16;24.27;;;9.88;;
59066;SDS011;44854;50.838;4.438;2024-02-21T03:25:42;21.70;;;10.13;;
59066;SDS011;44854;50.838;4.438;2024-02-21T03:28:08;27.90;;;9.65;;
59066;SDS011;44854;50.838;4.438;2024-02-21T03:30:33;29.10;;;9.70;;
59066;SDS011;44854;50.838;4.438;2024-02-21T03:32:59;20.10;;;9.80;;
59066;SDS011;44854;50.838;4.438;2024-02-21T03:35:26;20.83;;;9.23;;
59066;SDS011;44854;50.838;4.438;2024-02-21T03:37:53;22.40;;;9.82;;
59066;SDS011;44854;50.838;4.438;2024-02-21T03:40:18;22.45;;;9.82;;
59066;SDS011;44854;50.838;4.438;2024-02-21T03:42:44;21.75;;;10.05;;
59066;SDS011;44854;50.838;4.438;2024-02-21T03:45:10;24.58;;;10.15;;
59066;SDS011;44854;50.838;4.438;2024-02-21T03:47:35;29.10;;;9.93;;
59066;SDS011;44854;50.838;4.438;2024-02-21T03:50:03;21.15;;;10.68;;
59066;SDS011;44854;50.838;4.438;2024-02-21T03:52:29;27.70;;;11.30;;
59066;SDS011;44854;50.838;4.438;2024-02-21T03:54:55;24.55;;;11.50;;
59066;SDS011;44854;50.838;4.438;2024-02-21T03:57:21;21.85;;;10.90;;
59066;SDS011;44854;50.838;4.438;2024-02-21T03:59:49;25.75;;;11.73;;
59066;SDS011;44854;50.838;4.438;2024-02-21T04:02:15;26.00;;;12.10;;
59066;SDS011;44854;50.838;4.438;2024-02-21T04:04:43;27.05;;;11.75;;
59066;SDS011;44854;50.838;4.438;2024-02-21T04:07:11;24.65;;;12.02;;
59066;SDS011;44854;50.838;4.438;2024-02-21T04:09:37;26.00;;;11.70;;
59066;SDS011;44854;50.838;4.438;2024-02-21T04:12:04;23.60;;;12.38;;
59066;SDS011;44854;50.838;4.438;2024-02-21T04:14:30;33.42;;;12.52;;
59066;SDS011;44854;50.838;4.438;2024-02-21T04:16:56;26.60;;;12.27;;
59066;SDS011;44854;50.838;4.438;2024-02-21T04:19:22;32.55;;;13.55;;
59066;SDS011;44854;50.838;4.438;2024-02-21T04:21:47;27.98;;;11.82;;
59066;SDS011;44854;50.838;4.438;2024-02-21T04:24:13;24.90;;;11.70;;
59066;SDS011;44854;50.838;4.438;2024-02-21T04:26:39;27.65;;;12.10;;
59066;SDS011;44854;50.838;4.438;2024-02-21T04:29:05;29.98;;;11.95;;
59066;SDS011;44854;50.838;4.438;2024-02-21T04:31:33;28.08;;;12.05;;
59066;SDS011;44854;50.838;4.438;2024-02-21T04:33:59;24.58;;;11.55;;
59066;SDS011;44854;50.838;4.438;2024-02-21T04:36:25;25.10;;;11.88;;
59066;SDS011;44854;50.838;4.438;2024-02-21T04:38:50;26.77;;;12.55;;
59066;SDS011;44854;50.838;4.438;2024-02-21T04:41:16;26.80;;;11.50;;
59066;SDS011;44854;50.838;4.438;2024-02-21T04:43:42;27.92;;;11.85;;
59066;SDS011;44854;50.838;4.438;2024-02-21T04:46:07;28.33;;;11.85;;
59066;SDS011;44854;50.838;4.438;2024-02-21T04:48:33;28.38;;;11.57;;
59066;SDS011;44854;50.838;4.438;2024-02-21T04:50:58;23.52;;;11.48;;
59066;SDS011;44854;50.838;4.438;2024-02-21T04:53:24;25.25;;;11.65;;
59066;SDS011;44854;50.838;4.438;2024-02-21T04:55:50;24.17;;;10.57;;
59066;SDS011;44854;50.838;4.438;2024-02-21T04:58:15;20.45;;;10.75;;
59066;SDS011;44854;50.838;4.438;2024-02-21T05:00:41;30.15;;;12.55;;
59066;SDS011;44854;50.838;4.438;2024-02-21T05:03:07;19.35;;;10.38;;
59066;SDS011;44854;50.838;4.438;2024-02-21T05:05:32;23.70;;;10.15;;
59066;SDS011;44854;50.838;4.438;2024-02-21T05:07:58;22.33;;;10.73;;
59066;SDS011;44854;50.838;4.438;2024-02-21T05:10:23;20.88;;;10.18;;
59066;SDS011;44854;50.838;4.438;2024-02-21T05:12:49;18.80;;;9.90;;
59066;SDS011;44854;50.838;4.438;2024-02-21T05:15:15;29.15;;;11.60;;
59066;SDS011;44854;50.838;4.438;2024-02-21T05:17:40;26.10;;;10.98;;
59066;SDS011;44854;50.838;4.438;2024-02-21T05:20:08;22.47;;;10.30;;
59066;SDS011;44854;50.838;4.438;2024-02-21T05:22:35;24.23;;;10.45;;
59066;SDS011;44854;50.838;4.438;2024-02-21T05:25:01;21.23;;;9.75;;
59066;SDS011;44854;50.838;4.438;2024-02-21T05:27:26;20.95;;;10.13;;
59066;SDS011;44854;50.838;4.438;2024-02-21T05:29:53;20.52;;;10.20;;
59066;SDS011;44854;50.838;4.438;2024-02-21T05:32:20;19.38;;;10.13;;
59066;SDS011;44854;50.838;4.438;2024-02-21T05:34:48;17.80;;;9.77;;
59066;SDS011;44854;50.838;4.438;2024-02-21T05:37:15;19.60;;;9.45;;
59066;SDS011;44854;50.838;4.438;2024-02-21T05:39:40;19.13;;;10.20;;
59066;SDS011;44854;50.838;4.438;2024-02-21T05:42:06;17.40;;;8.52;;
59066;SDS011;44854;50.838;4.438;2024-02-21T05:44:32;21.25;;;8.50;;
59066;SDS011;44854;50.838;4.438;2024-02-21T05:46:58;18.08;;;9.68;;
59066;SDS011;44854;50.838;4.438;2024-02-21T05:49:23;20.52;;;9.07;;
59066;SDS011;44854;50.838;4.438;2024-02-21T05:51:49;17.55;;;9.52;;
59066;SDS011;44854;50.838;4.438;2024-02-21T05:54:15;14.15;;;7.95;;
59066;SDS011;44854;50.838;4.438;2024-02-21T05:56:43;18.23;;;8.60;;
59066;SDS011;44854;50.838;4.438;2024-02-21T05:59:10;21.02;;;7.82;;
59066;SDS011;44854;50.838;4.438;2024-02-21T06:01:36;18.13;;;7.70;;
59066;SDS011;44854;50.838;4.438;2024-02-21T06:04:02;17.00;;;7.85;;
59066;SDS011;44854;50.838;4.438;2024-02-21T06:06:27;14.60;;;7.43;;
59066;SDS011;44854;50.838;4.438;2024-02-21T06:08:53;13.75;;;7.68;;
59066;SDS011;44854;50.838;4.438;2024-02-21T06:11:20;14.10;;;7.45;;
59066;SDS011;44854;50.838;4.438;2024-02-21T06:13:46;13.50;;;7.30;;
59066;SDS011;44854;50.838;4.438;2024-02-21T06:16:11;16.20;;;6.28;;
59066;SDS011;44854;50.838;4.438;2024-02-21T06:18:37;11.95;;;6.80;;
59066;SDS011;44854;50.838;4.438;2024-02-21T06:21:03;18.27;;;7.13;;
59066;SDS011;44854;50.838;4.438;2024-02-21T06:23:29;13.95;;;6.75;;
59066;SDS011;44854;50.838;4.438;2024-02-21T06:25:55;11.15;;;6.65;;
59066;SDS011;44854;50.838;4.438;2024-02-21T06:28:21;13.43;;;6.57;;
59066;SDS011;44854;50.838;4.438;2024-02-21T06:30:46;23.85;;;6.68;;
59066;SDS011;44854;50.838;4.438;2024-02-21T06:33:12;14.20;;;7.47;;
59066;SDS011;44854;50.838;4.438;2024-02-21T06:35:38;12.18;;;7.60;;
59066;SDS011;44854;50.838;4.438;2024-02-21T06:38:06;13.20;;;8.23;;
59066;SDS011;44854;50.838;4.438;2024-02-21T06:40:32;14.25;;;7.20;;
59066;SDS011;44854;50.838;4.438;2024-02-21T06:43:03;17.27;;;7.43;;
59066;SDS011;44854;50.838;4.438;2024-02-21T06:45:29;14.45;;;8.13;;
59066;SDS011;44854;50.838;4.438;2024-02-21T06:47:55;18.20;;;7.63;;
59066;SDS011;44854;50.838;4.438;2024-02-21T06:50:21;17.88;;;8.15;;
59066;SDS011;44854;50.838;4.438;2024-02-21T06:52:46;14.93;;;8.27;;
59066;SDS011;44854;50.838;4.438;2024-02-21T06:55:13;16.00;;;8.65;;
59066;SDS011;44854;50.838;4.438;2024-02-21T06:57:39;14.03;;;7.90;;
59066;SDS011;44854;50.838;4.438;2024-02-21T07:00:05;19.20;;;8.63;;
59066;SDS011;44854;50.838;4.438;2024-02-21T07:02:33;17.05;;;11.45;;
59066;SDS011;44854;50.838;4.438;2024-02-21T07:04:59;12.82;;;8.32;;
59066;SDS011;44854;50.838;4.438;2024-02-21T07:07:26;14.13;;;8.32;;
59066;SDS011;44854;50.838;4.438;2024-02-21T07:09:54;19.10;;;8.95;;
59066;SDS011;44854;50.838;4.438;2024-02-21T07:12:20;13.88;;;9.10;;
59066;SDS011;44854;50.838;4.438;2024-02-21T07:14:46;13.43;;;8.73;;
59066;SDS011;44854;50.838;4.438;2024-02-21T07:17:11;11.38;;;8.07;;
59066;SDS011;44854;50.838;4.438;2024-02-21T07:19:37;13.90;;;8.60;;
59066;SDS011;44854;50.838;4.438;2024-02-21T07:22:03;15.07;;;9.10;;
59066;SDS011;44854;50.838;4.438;2024-02-21T07:24:29;19.95;;;8.30;;
59066;SDS011;44854;50.838;4.438;2024-02-21T07:26:56;15.85;;;8.10;;
59066;SDS011;44854;50.838;4.438;2024-02-21T07:29:22;13.18;;;9.45;;
59066;SDS011;44854;50.838;4.438;2024-02-21T07:31:48;16.73;;;9.18;;
59066;SDS011;44854;50.838;4.438;2024-02-21T07:34:13;16.50;;;8.45;;
59066;SDS011;44854;50.838;4.438;2024-02-21T07:36:40;15.45;;;9.88;;
59066;SDS011;44854;50.838;4.438;2024-02-21T07:39:07;80.72;;;14.52;;
59066;SDS011;44854;50.838;4.438;2024-02-21T07:41:33;73.28;;;13.30;;
59066;SDS011;44854;50.838;4.438;2024-02-21T07:43:59;21.40;;;9.55;;
59066;SDS011;44854;50.838;4.438;2024-02-21T07:46:25;21.92;;;9.27;;
59066;SDS011;44854;50.838;4.438;2024-02-21T07:48:51;21.55;;;10.00;;
59066;SDS011;44854;50.838;4.438;2024-02-21T07:51:17;16.45;;;9.05;;
59066;SDS011;44854;50.838;4.438;2024-02-21T07:53:43;22.88;;;9.70;;
59066;SDS011;44854;50.838;4.438;2024-02-21T07:56:14;14.25;;;9.52;;
59066;SDS011;44854;50.838;4.438;2024-02-21T07:58:40;16.60;;;10.02;;
59066;SDS011;44854;50.838;4.438;2024-02-21T08:01:07;18.52;;;8.77;;
59066;SDS011;44854;50.838;4.438;2024-02-21T08:03:33;19.10;;;8.98;;
59066;SDS011;44854;50.838;4.438;2024-02-21T08:05:58;15.13;;;9.00;;
59066;SDS011;44854;50.838;4.438;2024-02-21T08:08:24;18.42;;;8.52;;
59066;SDS011;44854;50.838;4.438;2024-02-21T08:10:51;14.43;;;8.48;;
59066;SDS011;44854;50.838;4.438;2024-02-21T08:13:17;18.02;;;8.43;;
59066;SDS011;44854;50.838;4.438;2024-02-21T08:15:42;22.95;;;9.10;;
59066;SDS011;44854;50.838;4.438;2024-02-21T08:18:08;15.88;;;7.97;;
59066;SDS011;44854;50.838;4.438;2024-02-21T08:20:34;19.48;;;8.40;;
59066;SDS011;44854;50.838;4.438;2024-02-21T08:23:00;20.17;;;8.48;;
59066;SDS011;44854;50.838;4.438;2024-02-21T08:25:26;17.10;;;8.00;;
59066;SDS011;44854;50.838;4.438;2024-02-21T08:27:53;20.80;;;8.73;;
59066;SDS011;44854;50.838;4.438;2024-02-21T08:30:25;16.95;;;7.85;;
59066;SDS011;44854;50.838;4.438;2024-02-21T08:32:51;15.05;;;7.38;;
59066;SDS011;44854;50.838;4.438;2024-02-21T08:35:16;20.58;;;7.63;;
59066;SDS011;44854;50.838;4.438;2024-02-21T08:37:47;15.77;;;7.15;;
59066;SDS011;44854;50.838;4.438;2024-02-21T08:40:13;13.90;;;7.03;;
59066;SDS011;44854;50.838;4.438;2024-02-21T08:42:42;24.52;;;7.55;;
59066;SDS011;44854;50.838;4.438;2024-02-21T08:45:09;14.50;;;6.95;;
59066;SDS011;44854;50.838;4.438;2024-02-21T08:47:34;18.75;;;7.75;;
59066;SDS011;44854;50.838;4.438;2024-02-21T08:50:01;14.25;;;7.10;;
59066;SDS011;44854;50.838;4.438;2024-02-21T08:52:27;13.82;;;7.22;;
59066;SDS011;44854;50.838;4.438;2024-02-21T08:54:53;15.45;;;7.32;;
59066;SDS011;44854;50.838;4.438;2024-02-21T08:57:19;16.15;;;6.85;;
59066;SDS011;44854;50.838;4.438;2024-02-21T08:59:45;20.35;;;7.30;;
59066;SDS011;44854;50.838;4.438;2024-02-21T09:02:12;17.40;;;7.35;;
59066;SDS011;44854;50.838;4.438;2024-02-21T09:04:38;17.55;;;7.38;;
59066;SDS011;44854;50.838;4.438;2024-02-21T09:07:03;22.10;;;7.57;;
59066;SDS011;44854;50.838;4.438;2024-02-21T09:09:29;14.63;;;6.38;;
59066;SDS011;44854;50.838;4.438;2024-02-21T09:11:55;18.02;;;7.38;;
59066;SDS011;44854;50.838;4.438;2024-02-21T09:14:21;15.43;;;5.88;;
59066;SDS011;44854;50.838;4.438;2024-02-21T09:16:48;18.40;;;6.50;;
59066;SDS011;44854;50.838;4.438;2024-02-21T09:19:14;16.10;;;7.03;;
59066;SDS011;44854;50.838;4.438;2024-02-21T09:21:40;16.42;;;6.72;;
59066;SDS011;44854;50.838;4.438;2024-02-21T09:24:05;12.07;;;6.07;;
59066;SDS011;44854;50.838;4.438;2024-02-21T09:26:31;13.25;;;6.10;;
59066;SDS011;44854;50.838;4.438;2024-02-21T09:28:57;10.88;;;5.97;;
59066;SDS011;44854;50.838;4.438;2024-02-21T09:31:23;15.70;;;6.63;;
59066;SDS011;44854;50.838;4.438;2024-02-21T09:33:48;17.42;;;5.72;;
59066;SDS011;44854;50.838;4.438;2024-02-21T09:36:14;19.00;;;6.60;;
59066;SDS011;44854;50.838;4.438;2024-02-21T09:38:40;20.65;;;6.05;;
59066;SDS011;44854;50.838;4.438;2024-02-21T09:41:16;15.73;;;5.60;;
59066;SDS011;44854;50.838;4.438;2024-02-21T09:43:43;12.32;;;6.00;;
59066;SDS011;44854;50.838;4.438;2024-02-21T09:46:15;17.10;;;6.97;;
59066;SDS011;44854;50.838;4.438;2024-02-21T09:51:11;16.33;;;5.97;;
59066;SDS011;44854;50.838;4.438;2024-02-21T09:56:07;8.07;;;4.93;;
59066;SDS011;44854;50.838;4.438;2024-02-21T09:58:34;14.88;;;6.28;;
59066;SDS011;44854;50.838;4.438;2024-02-21T10:00:59;13.02;;;5.22;;
59066;SDS011;44854;50.838;4.438;2024-02-21T10:03:25;12.63;;;4.93;;
59066;SDS011;44854;50.838;4.438;2024-02-21T10:05:51;12.80;;;5.35;;
59066;SDS011;44854;50.838;4.438;2024-02-21T10:08:17;11.25;;;5.03;;
59066;SDS011;44854;50.838;4.438;2024-02-21T10:10:45;14.50;;;4.65;;
59066;SDS011;44854;50.838;4.438;2024-02-21T10:13:21;10.23;;;4.25;;
59066;SDS011;44854;50.838;4.438;2024-02-21T10:16:04;13.90;;;5.55;;
59066;SDS011;44854;50.838;4.438;2024-02-21T10:18:31;14.65;;;5.00;;
59066;SDS011;44854;50.838;4.438;2024-02-21T10:21:03;10.07;;;5.20;;
59066;SDS011;44854;50.838;4.438;2024-02-21T10:23:47;13.85;;;4.82;;
59066;SDS011;44854;50.838;4.438;2024-02-21T10:26:14;11.38;;;4.72;;
59066;SDS011;44854;50.838;4.438;2024-02-21T10:28:41;23.33;;;5.53;;
59066;SDS011;44854;50.838;4.438;2024-02-21T10:31:10;14.18;;;4.60;;
59066;SDS011;44854;50.838;4.438;2024-02-21T10:33:53;21.83;;;4.88;;
59066;SDS011;44854;50.838;4.438;2024-02-21T10:36:28;12.63;;;4.65;;
59066;SDS011;44854;50.838;4.438;2024-02-21T10:38:54;14.35;;;4.95;;
59066;SDS011;44854;50.838;4.438;2024-02-21T10:41:21;11.27;;;4.63;;
59066;SDS011;44854;50.838;4.438;2024-02-21T10:43:54;19.38;;;5.82;;
59066;SDS011;44854;50.838;4.438;2024-02-21T10:46:20;20.17;;;8.55;;
59066;SDS011;44854;50.838;4.438;2024-02-21T10:48:48;14.35;;;5.45;;
59066;SDS011;44854;50.838;4.438;2024-02-21T10:51:23;19.48;;;6.05;;
59066;SDS011;44854;50.838;4.438;2024-02-21T10:56:49;16.30;;;5.25;;
59066;SDS011;44854;50.838;4.438;2024-02-21T10:59:16;20.05;;;6.07;;
59066;SDS011;44854;50.838;4.438;2024-02-21T11:01:43;14.50;;;4.90;;
59066;SDS011;44854;50.838;4.438;2024-02-21T11:04:09;12.93;;;4.38;;
59066;SDS011;44854;50.838;4.438;2024-02-21T11:09:07;14.52;;;4.30;;
59066;SDS011;44854;50.838;4.438;2024-02-21T11:11:34;10.32;;;4.10;;
59066;SDS011;44854;50.838;4.438;2024-02-21T11:14:19;10.07;;;3.92;;
59066;SDS011;44854;50.838;4.438;2024-02-21T11:16:45;12.73;;;4.00;;
59066;SDS011;44854;50.838;4.438;2024-02-21T11:19:21;8.30;;;3.63;;
59066;SDS011;44854;50.838;4.438;2024-02-21T11:21:49;9.10;;;4.00;;
59066;SDS011;44854;50.838;4.438;2024-02-21T11:26:53;8.45;;;3.47;;
59066;SDS011;44854;50.838;4.438;2024-02-21T11:29:25;8.27;;;3.97;;
59066;SDS011;44854;50.838;4.438;2024-02-21T11:31:51;6.63;;;3.42;;
59066;SDS011;44854;50.838;4.438;2024-02-21T11:34:18;12.88;;;3.90;;
59066;SDS011;44854;50.838;4.438;2024-02-21T11:36:48;8.68;;;4.18;;
59066;SDS011;44854;50.838;4.438;2024-02-21T11:39:20;9.35;;;3.53;;
59066;SDS011;44854;50.838;4.438;2024-02-21T11:44:45;13.10;;;4.15;;
59066;SDS011;44854;50.838;4.438;2024-02-21T11:47:11;11.90;;;4.20;;
59066;SDS011;44854;50.838;4.438;2024-02-21T11:52:10;7.95;;;3.97;;
59066;SDS011;44854;50.838;4.438;2024-02-21T11:54:36;8.65;;;3.58;;
59066;SDS011;44854;50.838;4.438;2024-02-21T11:57:02;16.52;;;4.40;;
59066;SDS011;44854;50.838;4.438;2024-02-21T11:59:32;12.68;;;3.85;;
59066;SDS011;44854;50.838;4.438;2024-02-21T12:01:59;13.80;;;4.80;;
59066;SDS011;44854;50.838;4.438;2024-02-21T12:04:25;17.10;;;4.82;;
59066;SDS011;44854;50.838;4.438;2024-02-21T12:06:55;15.15;;;4.38;;
59066;SDS011;44854;50.838;4.438;2024-02-21T12:09:22;13.40;;;5.03;;
59066;SDS011;44854;50.838;4.438;2024-02-21T12:11:58;13.65;;;4.90;;
59066;SDS011;44854;50.838;4.438;2024-02-21T12:14:26;18.63;;;4.32;;
59066;SDS011;44854;50.838;4.438;2024-02-21T12:16:52;15.93;;;5.07;;
59066;SDS011;44854;50.838;4.438;2024-02-21T12:19:19;16.48;;;4.63;;
59066;SDS011;44854;50.838;4.438;2024-02-21T12:21:45;14.35;;;4.70;;
59066;SDS011;44854;50.838;4.438;2024-02-21T12:24:15;13.57;;;4.43;;
59066;SDS011;44854;50.838;4.438;2024-02-21T12:26:50;12.38;;;5.32;;
59066;SDS011;44854;50.838;4.438;2024-02-21T12:29:17;13.60;;;4.90;;
59066;SDS011;44854;50.838;4.438;2024-02-21T12:31:43;14.88;;;4.93;;
59066;SDS011;44854;50.838;4.438;2024-02-21T12:34:10;10.73;;;4.97;;
59066;SDS011;44854;50.838;4.438;2024-02-21T12:36:40;11.23;;;5.18;;
59066;SDS011;44854;50.838;4.438;2024-02-21T12:39:08;16.33;;;4.88;;
59066;SDS011;44854;50.838;4.438;2024-02-21T12:41:34;14.48;;;5.20;;
59066;SDS011;44854;50.838;4.438;2024-02-21T12:44:03;12.02;;;4.55;;
59066;SDS011;44854;50.838;4.438;2024-02-21T12:46:31;12.68;;;4.68;;
59066;SDS011;44854;50.838;4.438;2024-02-21T12:49:00;15.65;;;5.72;;
59066;SDS011;44854;50.838;4.438;2024-02-21T12:51:30;16.70;;;5.82;;
59066;SDS011;44854;50.838;4.438;2024-02-21T12:53:56;21.13;;;6.30;;
59066;SDS011;44854;50.838;4.438;2024-02-21T12:56:22;20.55;;;5.25;;
59066;SDS011;44854;50.838;4.438;2024-02-21T12:58:49;17.35;;;5.10;;
59066;SDS011;44854;50.838;4.438;2024-02-21T13:01:15;12.40;;;5.20;;
59066;SDS011;44854;50.838;4.438;2024-02-21T13:03:41;16.95;;;5.75;;
59066;SDS011;44854;50.838;4.438;2024-02-21T13:06:07;11.10;;;4.80;;
59066;SDS011;44854;50.838;4.438;2024-02-21T13:08:38;10.00;;;4.40;;
59066;SDS011;44854;50.838;4.438;2024-02-21T13:11:04;13.23;;;5.03;;
59066;SDS011;44854;50.838;4.438;2024-02-21T13:13:30;11.68;;;5.13;;
59066;SDS011;44854;50.838;4.438;2024-02-21T13:15:59;18.10;;;5.78;;
59066;SDS011;44854;50.838;4.438;2024-02-21T13:18:25;17.92;;;6.00;;
59066;SDS011;44854;50.838;4.438;2024-02-21T13:20:51;11.68;;;4.95;;
59066;SDS011;44854;50.838;4.438;2024-02-21T13:23:17;10.27;;;5.30;;
59066;SDS011;44854;50.838;4.438;2024-02-21T13:25:42;12.73;;;5.10;;
59066;SDS011;44854;50.838;4.438;2024-02-21T13:30:38;8.43;;;4.65;;
59066;SDS011;44854;50.838;4.438;2024-02-21T13:33:05;15.40;;;5.55;;
59066;SDS011;44854;50.838;4.438;2024-02-21T13:35:32;13.18;;;5.45;;
59066;SDS011;44854;50.838;4.438;2024-02-21T13:37:57;9.88;;;4.75;;
59066;SDS011;44854;50.838;4.438;2024-02-21T13:40:25;17.23;;;6.13;;
59066;SDS011;44854;50.838;4.438;2024-02-21T13:42:51;13.95;;;4.97;;
59066;SDS011;44854;50.838;4.438;2024-02-21T13:45:16;11.43;;;5.28;;
59066;SDS011;44854;50.838;4.438;2024-02-21T13:47:42;12.90;;;5.15;;
59066;SDS011;44854;50.838;4.438;2024-02-21T13:50:08;16.60;;;6.07;;
59066;SDS011;44854;50.838;4.438;2024-02-21T13:52:36;12.70;;;5.30;;
59066;SDS011;44854;50.838;4.438;2024-02-21T13:55:02;12.68;;;5.75;;
59066;SDS011;44854;50.838;4.438;2024-02-21T13:57:28;10.27;;;5.03;;
59066;SDS011;44854;50.838;4.438;2024-02-21T13:59:54;17.45;;;5.68;;
59066;SDS011;44854;50.838;4.438;2024-02-21T14:02:20;11.98;;;5.45;;
59066;SDS011;44854;50.838;4.438;2024-02-21T14:04:46;10.05;;;5.20;;
59066;SDS011;44854;50.838;4.438;2024-02-21T14:07:12;15.68;;;5.90;;
59066;SDS011;44854;50.838;4.438;2024-02-21T14:09:38;14.27;;;5.90;;
59066;SDS011;44854;50.838;4.438;2024-02-21T14:12:03;8.23;;;4.82;;
59066;SDS011;44854;50.838;4.438;2024-02-21T14:14:33;14.25;;;5.72;;
59066;SDS011;44854;50.838;4.438;2024-02-21T14:17:02;11.85;;;5.30;;
59066;SDS011;44854;50.838;4.438;2024-02-21T14:19:29;11.75;;;5.20;;
59066;SDS011;44854;50.838;4.438;2024-02-21T14:21:55;11.82;;;5.28;;
59066;SDS011;44854;50.838;4.438;2024-02-21T14:24:21;14.93;;;5.95;;
59066;SDS011;44854;50.838;4.438;2024-02-21T14:26:47;14.40;;;5.55;;
59066;SDS011;44854;50.838;4.438;2024-02-21T14:29:13;13.32;;;5.63;;
59066;SDS011;44854;50.838;4.438;2024-02-21T14:31:39;14.07;;;5.10;;
59066;SDS011;44854;50.838;4.438;2024-02-21T14:34:05;13.85;;;6.28;;
59066;SDS011;44854;50.838;4.438;2024-02-21T14:36:32;14.48;;;5.80;;
59066;SDS011;44854;50.838;4.438;2024-02-21T14:38:58;12.93;;;6.20;;
59066;SDS011;44854;50.838;4.438;2024-02-21T14:41:24;12.63;;;5.72;;
59066;SDS011;44854;50.838;4.438;2024-02-21T14:43:50;11.45;;;5.70;;
59066;SDS011;44854;50.838;4.438;2024-02-21T14:46:16;15.23;;;6.38;;
59066;SDS011;44854;50.838;4.438;2024-02-21T14:48:42;15.55;;;5.97;;
59066;SDS011;44854;50.838;4.438;2024-02-21T14:51:11;17.63;;;6.25;;
59066;SDS011;44854;50.838;4.438;2024-02-21T14:53:37;12.87;;;6.80;;